sensor_id;sensor_type;location;lat;lon;timestamp;P1;durP1;ratioP1;P2;durP2;ratioP2
438;SDS011;206;48.782;9.252;2022-09-20T00:03:41;7.17;;;5.97;;
438;SDS011;206;48.782;9.252;2022-09-20T00:06:10;7.10;;;5.00;;
438;SDS011;206;48.782;9.252;2022-09-20T00:08:38;10.23;;;4.83;;
438;SDS011;206;48.782;9.252;2022-09-20T00:11:08;5.07;;;4.80;;
438;SDS011;206;48.782;9.252;2022-09-20T00:13:40;5.30;;;4.83;;
438;SDS011;206;48.782;9.252;2022-09-20T00:16:09;8.23;;;5.40;;
438;SDS011;206;48.782;9.252;2022-09-20T00:18:39;7.53;;;5.17;;
438;SDS011;206;48.782;9.252;2022-09-20T00:21:04;6.97;;;4.97;;
438;SDS011;206;48.782;9.252;2022-09-20T00:23:30;5.10;;;4.83;;
438;SDS011;206;48.782;9.252;2022-09-20T00:25:57;7.20;;;4.80;;
438;SDS011;206;48.782;9.252;2022-09-20T00:28:27;7.30;;;5.73;;
438;SDS011;206;48.782;9.252;2022-09-20T00:30:53;10.60;;;6.67;;
438;SDS011;206;48.782;9.252;2022-09-20T00:33:21;5.93;;;4.60;;
438;SDS011;206;48.782;9.252;2022-09-20T00:35:48;8.10;;;5.87;;
438;SDS011;206;48.782;9.252;2022-09-20T00:38:14;6.13;;;4.47;;
438;SDS011;206;48.782;9.252;2022-09-20T00:40:41;7.83;;;5.33;;
438;SDS011;206;48.782;9.252;2022-09-20T00:43:12;6.47;;;4.00;;
438;SDS011;206;48.782;9.252;2022-09-20T00:45:39;4.50;;;4.00;;
438;SDS011;206;48.782;9.252;2022-09-20T00:48:11;6.63;;;4.33;;
438;SDS011;206;48.782;9.252;2022-09-20T00:50:43;7.27;;;5.63;;
438;SDS011;206;48.782;9.252;2022-09-20T00:53:15;6.53;;;4.87;;
438;SDS011;206;48.782;9.252;2022-09-20T00:55:53;9.70;;;4.70;;
438;SDS011;206;48.782;9.252;2022-09-20T00:58:24;8.53;;;4.10;;
438;SDS011;206;48.782;9.252;2022-09-20T01:00:51;4.53;;;4.07;;
438;SDS011;206;48.782;9.252;2022-09-20T01:03:19;8.53;;;5.10;;
438;SDS011;206;48.782;9.252;2022-09-20T01:05:47;6.17;;;4.30;;
438;SDS011;206;48.782;9.252;2022-09-20T01:08:14;5.37;;;5.07;;
438;SDS011;206;48.782;9.252;2022-09-20T01:10:42;6.63;;;4.30;;
438;SDS011;206;48.782;9.252;2022-09-20T01:13:08;11.27;;;4.83;;
438;SDS011;206;48.782;9.252;2022-09-20T01:15:33;6.13;;;4.60;;
438;SDS011;206;48.782;9.252;2022-09-20T01:18:02;6.27;;;4.83;;
438;SDS011;206;48.782;9.252;2022-09-20T01:20:32;6.40;;;3.80;;
438;SDS011;206;48.782;9.252;2022-09-20T01:23:22;5.90;;;3.90;;
438;SDS011;206;48.782;9.252;2022-09-20T01:28:35;5.30;;;3.47;;
438;SDS011;206;48.782;9.252;2022-09-20T01:33:51;4.87;;;3.13;;
438;SDS011;206;48.782;9.252;2022-09-20T01:42:35;8.73;;;4.07;;
438;SDS011;206;48.782;9.252;2022-09-20T01:54:05;6.60;;;3.20;;
438;SDS011;206;48.782;9.252;2022-09-20T01:59:36;9.27;;;3.57;;
438;SDS011;206;48.782;9.252;2022-09-20T02:11:03;4.47;;;2.50;;
438;SDS011;206;48.782;9.252;2022-09-20T02:19:40;6.33;;;3.83;;
438;SDS011;206;48.782;9.252;2022-09-20T02:22:24;5.57;;;3.20;;
438;SDS011;206;48.782;9.252;2022-09-20T02:25:01;7.73;;;3.57;;
438;SDS011;206;48.782;9.252;2022-09-20T02:30:14;5.87;;;2.90;;
438;SDS011;206;48.782;9.252;2022-09-20T02:33:08;5.43;;;3.77;;
438;SDS011;206;48.782;9.252;2022-09-20T02:35:55;4.40;;;3.63;;
438;SDS011;206;48.782;9.252;2022-09-20T02:41:18;4.77;;;3.70;;
438;SDS011;206;48.782;9.252;2022-09-20T02:46:24;4.53;;;3.20;;
438;SDS011;206;48.782;9.252;2022-09-20T02:48:59;5.23;;;3.23;;
438;SDS011;206;48.782;9.252;2022-09-20T02:51:43;7.77;;;3.10;;
438;SDS011;206;48.782;9.252;2022-09-20T02:57:07;11.60;;;4.13;;
438;SDS011;206;48.782;9.252;2022-09-20T03:08:43;4.40;;;2.30;;
438;SDS011;206;48.782;9.252;2022-09-20T03:11:40;4.13;;;2.63;;
438;SDS011;206;48.782;9.252;2022-09-20T03:14:23;4.60;;;2.87;;
438;SDS011;206;48.782;9.252;2022-09-20T03:19:58;6.40;;;3.73;;
438;SDS011;206;48.782;9.252;2022-09-20T03:37:48;4.50;;;3.20;;
438;SDS011;206;48.782;9.252;2022-09-20T03:42:53;6.50;;;3.80;;
438;SDS011;206;48.782;9.252;2022-09-20T03:45:44;10.63;;;3.53;;
438;SDS011;206;48.782;9.252;2022-09-20T03:48:49;7.33;;;4.10;;
438;SDS011;206;48.782;9.252;2022-09-20T03:51:46;5.00;;;3.27;;
438;SDS011;206;48.782;9.252;2022-09-20T03:57:25;4.40;;;4.10;;
438;SDS011;206;48.782;9.252;2022-09-20T04:09:25;4.60;;;3.80;;
438;SDS011;206;48.782;9.252;2022-09-20T04:12:12;2.90;;;2.60;;
438;SDS011;206;48.782;9.252;2022-09-20T04:20:30;5.97;;;2.93;;
438;SDS011;206;48.782;9.252;2022-09-20T04:23:31;4.50;;;3.43;;
438;SDS011;206;48.782;9.252;2022-09-20T04:26:15;6.87;;;2.97;;
438;SDS011;206;48.782;9.252;2022-09-20T04:29:00;8.33;;;3.37;;
438;SDS011;206;48.782;9.252;2022-09-20T04:31:37;4.00;;;3.30;;
438;SDS011;206;48.782;9.252;2022-09-20T04:34:20;4.00;;;2.90;;
438;SDS011;206;48.782;9.252;2022-09-20T04:37:26;5.07;;;3.97;;
438;SDS011;206;48.782;9.252;2022-09-20T04:48:49;7.30;;;4.67;;
438;SDS011;206;48.782;9.252;2022-09-20T04:57:50;5.23;;;3.63;;
438;SDS011;206;48.782;9.252;2022-09-20T05:00:41;9.40;;;4.40;;
438;SDS011;206;48.782;9.252;2022-09-20T05:29:18;4.77;;;4.17;;
438;SDS011;206;48.782;9.252;2022-09-20T05:31:48;9.43;;;3.90;;
438;SDS011;206;48.782;9.252;2022-09-20T05:34:45;7.50;;;3.70;;
438;SDS011;206;48.782;9.252;2022-09-20T05:43:29;10.63;;;4.30;;
438;SDS011;206;48.782;9.252;2022-09-20T05:52:03;7.40;;;4.30;;
438;SDS011;206;48.782;9.252;2022-09-20T06:00:48;9.43;;;6.67;;
438;SDS011;206;48.782;9.252;2022-09-20T06:03:29;6.30;;;4.83;;
438;SDS011;206;48.782;9.252;2022-09-20T06:06:19;5.33;;;3.93;;
438;SDS011;206;48.782;9.252;2022-09-20T06:19:48;12.73;;;4.93;;
438;SDS011;206;48.782;9.252;2022-09-20T06:22:22;8.03;;;4.37;;
438;SDS011;206;48.782;9.252;2022-09-20T06:30:14;5.03;;;3.90;;
438;SDS011;206;48.782;9.252;2022-09-20T06:32:56;9.23;;;6.23;;
438;SDS011;206;48.782;9.252;2022-09-20T06:42:24;8.13;;;5.20;;
438;SDS011;206;48.782;9.252;2022-09-20T06:44:50;8.93;;;4.43;;
438;SDS011;206;48.782;9.252;2022-09-20T06:47:16;7.60;;;4.57;;
438;SDS011;206;48.782;9.252;2022-09-20T06:49:42;11.10;;;4.33;;
438;SDS011;206;48.782;9.252;2022-09-20T06:52:11;7.10;;;4.40;;
438;SDS011;206;48.782;9.252;2022-09-20T06:54:39;10.00;;;5.60;;
438;SDS011;206;48.782;9.252;2022-09-20T06:57:08;9.90;;;5.10;;
438;SDS011;206;48.782;9.252;2022-09-20T06:59:34;6.00;;;5.20;;
438;SDS011;206;48.782;9.252;2022-09-20T07:01:59;8.33;;;4.90;;
438;SDS011;206;48.782;9.252;2022-09-20T07:04:25;9.13;;;5.30;;
438;SDS011;206;48.782;9.252;2022-09-20T07:06:51;14.30;;;5.43;;
438;SDS011;206;48.782;9.252;2022-09-20T07:09:23;4.80;;;2.90;;
438;SDS011;206;48.782;9.252;2022-09-20T07:11:49;4.80;;;2.77;;
438;SDS011;206;48.782;9.252;2022-09-20T07:14:14;6.07;;;2.87;;
438;SDS011;206;48.782;9.252;2022-09-20T07:16:40;6.67;;;3.10;;
438;SDS011;206;48.782;9.252;2022-09-20T07:19:06;7.90;;;3.63;;
438;SDS011;206;48.782;9.252;2022-09-20T07:21:32;6.40;;;2.90;;
438;SDS011;206;48.782;9.252;2022-09-20T07:23:57;4.20;;;2.60;;
438;SDS011;206;48.782;9.252;2022-09-20T07:26:24;7.77;;;3.00;;
438;SDS011;206;48.782;9.252;2022-09-20T07:28:52;9.67;;;4.00;;
438;SDS011;206;48.782;9.252;2022-09-20T07:31:19;6.20;;;2.90;;
438;SDS011;206;48.782;9.252;2022-09-20T07:33:46;5.10;;;2.70;;
438;SDS011;206;48.782;9.252;2022-09-20T07:36:13;6.27;;;3.10;;
438;SDS011;206;48.782;9.252;2022-09-20T07:38:39;6.20;;;3.60;;
438;SDS011;206;48.782;9.252;2022-09-20T07:41:05;6.47;;;3.37;;
438;SDS011;206;48.782;9.252;2022-09-20T07:43:30;8.50;;;3.73;;
438;SDS011;206;48.782;9.252;2022-09-20T07:45:56;5.70;;;2.77;;
438;SDS011;206;48.782;9.252;2022-09-20T07:48:28;4.57;;;3.03;;
438;SDS011;206;48.782;9.252;2022-09-20T07:51:03;5.87;;;2.70;;
438;SDS011;206;48.782;9.252;2022-09-20T07:53:30;7.97;;;3.30;;
438;SDS011;206;48.782;9.252;2022-09-20T07:56:06;11.43;;;3.23;;
438;SDS011;206;48.782;9.252;2022-09-20T07:58:34;8.57;;;3.30;;
438;SDS011;206;48.782;9.252;2022-09-20T08:01:01;12.00;;;3.53;;
438;SDS011;206;48.782;9.252;2022-09-20T08:03:32;17.50;;;5.30;;
438;SDS011;206;48.782;9.252;2022-09-20T08:06:02;5.80;;;2.60;;
438;SDS011;206;48.782;9.252;2022-09-20T08:08:36;6.43;;;2.40;;
438;SDS011;206;48.782;9.252;2022-09-20T08:11:05;8.53;;;3.10;;
438;SDS011;206;48.782;9.252;2022-09-20T08:13:39;5.10;;;2.27;;
438;SDS011;206;48.782;9.252;2022-09-20T08:16:07;6.67;;;2.37;;
438;SDS011;206;48.782;9.252;2022-09-20T08:18:46;5.70;;;2.87;;
438;SDS011;206;48.782;9.252;2022-09-20T08:21:13;6.10;;;2.50;;
438;SDS011;206;48.782;9.252;2022-09-20T08:23:40;4.10;;;2.47;;
438;SDS011;206;48.782;9.252;2022-09-20T08:26:07;7.57;;;2.40;;
438;SDS011;206;48.782;9.252;2022-09-20T08:28:36;4.43;;;2.20;;
438;SDS011;206;48.782;9.252;2022-09-20T08:33:28;8.83;;;2.07;;
438;SDS011;206;48.782;9.252;2022-09-20T08:35:54;7.23;;;3.10;;
438;SDS011;206;48.782;9.252;2022-09-20T08:38:19;10.43;;;2.70;;
438;SDS011;206;48.782;9.252;2022-09-20T08:40:50;7.77;;;1.70;;
438;SDS011;206;48.782;9.252;2022-09-20T08:43:42;6.67;;;2.50;;
438;SDS011;206;48.782;9.252;2022-09-20T08:46:14;16.37;;;2.37;;
438;SDS011;206;48.782;9.252;2022-09-20T08:48:43;3.30;;;1.77;;
438;SDS011;206;48.782;9.252;2022-09-20T08:51:11;3.33;;;1.87;;
438;SDS011;206;48.782;9.252;2022-09-20T08:53:42;9.90;;;2.50;;
438;SDS011;206;48.782;9.252;2022-09-20T08:56:11;2.83;;;1.40;;
438;SDS011;206;48.782;9.252;2022-09-20T08:58:37;5.50;;;1.60;;
438;SDS011;206;48.782;9.252;2022-09-20T09:01:03;7.77;;;1.63;;
438;SDS011;206;48.782;9.252;2022-09-20T09:03:30;3.60;;;2.03;;
438;SDS011;206;48.782;9.252;2022-09-20T09:05:57;5.50;;;1.80;;
438;SDS011;206;48.782;9.252;2022-09-20T09:08:27;7.07;;;2.03;;
438;SDS011;206;48.782;9.252;2022-09-20T09:10:56;5.93;;;2.10;;
438;SDS011;206;48.782;9.252;2022-09-20T09:16:13;5.63;;;1.80;;
438;SDS011;206;48.782;9.252;2022-09-20T09:18:41;2.30;;;1.33;;
438;SDS011;206;48.782;9.252;2022-09-20T09:21:16;4.10;;;2.33;;
438;SDS011;206;48.782;9.252;2022-09-20T09:23:50;4.10;;;1.40;;
438;SDS011;206;48.782;9.252;2022-09-20T09:26:26;8.20;;;2.03;;
438;SDS011;206;48.782;9.252;2022-09-20T09:31:41;10.23;;;3.00;;
438;SDS011;206;48.782;9.252;2022-09-20T09:34:25;3.20;;;1.53;;
438;SDS011;206;48.782;9.252;2022-09-20T09:36:57;3.17;;;1.73;;
438;SDS011;206;48.782;9.252;2022-09-20T09:39:27;6.87;;;1.83;;
438;SDS011;206;48.782;9.252;2022-09-20T09:41:55;3.50;;;1.50;;
438;SDS011;206;48.782;9.252;2022-09-20T09:44:28;9.40;;;2.00;;
438;SDS011;206;48.782;9.252;2022-09-20T09:46:57;1.80;;;1.50;;
438;SDS011;206;48.782;9.252;2022-09-20T09:49:29;7.03;;;1.50;;
438;SDS011;206;48.782;9.252;2022-09-20T09:54:35;3.50;;;2.20;;
438;SDS011;206;48.782;9.252;2022-09-20T10:00:16;7.90;;;1.70;;
438;SDS011;206;48.782;9.252;2022-09-20T10:28:14;5.80;;;1.73;;
438;SDS011;206;48.782;9.252;2022-09-20T10:31:05;2.73;;;1.30;;
438;SDS011;206;48.782;9.252;2022-09-20T10:34:03;4.97;;;1.50;;
438;SDS011;206;48.782;9.252;2022-09-20T10:36:50;2.87;;;1.70;;
438;SDS011;206;48.782;9.252;2022-09-20T10:47:54;3.63;;;1.50;;
438;SDS011;206;48.782;9.252;2022-09-20T10:55:40;6.20;;;1.70;;
438;SDS011;206;48.782;9.252;2022-09-20T11:07:18;18.73;;;1.50;;
438;SDS011;206;48.782;9.252;2022-09-20T11:09:56;3.33;;;1.20;;
438;SDS011;206;48.782;9.252;2022-09-20T11:12:37;4.80;;;1.40;;
438;SDS011;206;48.782;9.252;2022-09-20T11:15:19;5.63;;;1.90;;
438;SDS011;206;48.782;9.252;2022-09-20T11:18:06;5.27;;;1.67;;
438;SDS011;206;48.782;9.252;2022-09-20T11:20:46;3.53;;;1.60;;
438;SDS011;206;48.782;9.252;2022-09-20T11:23:19;6.80;;;1.50;;
438;SDS011;206;48.782;9.252;2022-09-20T11:25:50;14.23;;;1.50;;
438;SDS011;206;48.782;9.252;2022-09-20T11:28:25;4.23;;;1.30;;
438;SDS011;206;48.782;9.252;2022-09-20T11:31:06;5.43;;;1.30;;
438;SDS011;206;48.782;9.252;2022-09-20T11:36:13;5.43;;;1.50;;
438;SDS011;206;48.782;9.252;2022-09-20T11:38:50;5.97;;;2.07;;
438;SDS011;206;48.782;9.252;2022-09-20T11:43:49;2.63;;;1.30;;
438;SDS011;206;48.782;9.252;2022-09-20T11:57:14;2.80;;;1.30;;
438;SDS011;206;48.782;9.252;2022-09-20T11:59:41;2.07;;;1.20;;
438;SDS011;206;48.782;9.252;2022-09-20T12:02:28;3.40;;;1.53;;
438;SDS011;206;48.782;9.252;2022-09-20T12:04:59;3.70;;;1.83;;
438;SDS011;206;48.782;9.252;2022-09-20T12:07:36;3.93;;;1.23;;
438;SDS011;206;48.782;9.252;2022-09-20T12:15:06;7.27;;;2.17;;
438;SDS011;206;48.782;9.252;2022-09-20T12:26:03;6.63;;;1.70;;
438;SDS011;206;48.782;9.252;2022-09-20T12:39:19;5.37;;;1.70;;
438;SDS011;206;48.782;9.252;2022-09-20T12:42:02;6.63;;;1.80;;
438;SDS011;206;48.782;9.252;2022-09-20T12:47:32;5.30;;;1.63;;
438;SDS011;206;48.782;9.252;2022-09-20T12:50:03;4.07;;;1.57;;
438;SDS011;206;48.782;9.252;2022-09-20T12:52:57;3.03;;;1.40;;
438;SDS011;206;48.782;9.252;2022-09-20T12:57:57;2.07;;;1.07;;
438;SDS011;206;48.782;9.252;2022-09-20T13:08:41;4.20;;;1.00;;
438;SDS011;206;48.782;9.252;2022-09-20T13:11:17;6.27;;;1.40;;
438;SDS011;206;48.782;9.252;2022-09-20T13:14:05;2.67;;;1.20;;
438;SDS011;206;48.782;9.252;2022-09-20T13:21:48;4.97;;;1.50;;
438;SDS011;206;48.782;9.252;2022-09-20T13:24:20;7.43;;;1.27;;
438;SDS011;206;48.782;9.252;2022-09-20T13:26:50;5.50;;;1.40;;
438;SDS011;206;48.782;9.252;2022-09-20T13:29:33;2.20;;;1.03;;
438;SDS011;206;48.782;9.252;2022-09-20T13:35:33;5.30;;;2.13;;
438;SDS011;206;48.782;9.252;2022-09-20T13:40:17;3.70;;;1.67;;
438;SDS011;206;48.782;9.252;2022-09-20T13:42:43;3.47;;;1.33;;
438;SDS011;206;48.782;9.252;2022-09-20T13:45:11;3.30;;;1.10;;
438;SDS011;206;48.782;9.252;2022-09-20T13:47:40;4.73;;;2.10;;
438;SDS011;206;48.782;9.252;2022-09-20T13:52:46;3.93;;;1.90;;
438;SDS011;206;48.782;9.252;2022-09-20T13:55:33;4.70;;;1.50;;
438;SDS011;206;48.782;9.252;2022-09-20T13:58:36;4.00;;;1.97;;
438;SDS011;206;48.782;9.252;2022-09-20T14:00:58;7.03;;;1.83;;
438;SDS011;206;48.782;9.252;2022-09-20T14:03:27;4.57;;;1.70;;
438;SDS011;206;48.782;9.252;2022-09-20T14:05:55;3.73;;;1.33;;
438;SDS011;206;48.782;9.252;2022-09-20T14:08:49;3.33;;;1.60;;
438;SDS011;206;48.782;9.252;2022-09-20T14:11:22;9.10;;;2.07;;
438;SDS011;206;48.782;9.252;2022-09-20T14:13:52;8.73;;;1.87;;
438;SDS011;206;48.782;9.252;2022-09-20T14:16:21;7.77;;;1.70;;
438;SDS011;206;48.782;9.252;2022-09-20T14:18:54;6.47;;;2.03;;
438;SDS011;206;48.782;9.252;2022-09-20T14:21:23;4.93;;;1.70;;
438;SDS011;206;48.782;9.252;2022-09-20T14:26:35;6.83;;;2.00;;
438;SDS011;206;48.782;9.252;2022-09-20T14:32:04;5.33;;;1.73;;
438;SDS011;206;48.782;9.252;2022-09-20T14:34:35;4.13;;;1.40;;
438;SDS011;206;48.782;9.252;2022-09-20T14:37:13;8.80;;;1.80;;
438;SDS011;206;48.782;9.252;2022-09-20T14:39:49;4.63;;;2.00;;
438;SDS011;206;48.782;9.252;2022-09-20T14:42:22;3.73;;;2.03;;
438;SDS011;206;48.782;9.252;2022-09-20T14:45:00;3.03;;;1.60;;
438;SDS011;206;48.782;9.252;2022-09-20T14:47:38;3.23;;;1.40;;
438;SDS011;206;48.782;9.252;2022-09-20T14:53:00;3.13;;;1.53;;
438;SDS011;206;48.782;9.252;2022-09-20T14:55:26;2.70;;;2.07;;
438;SDS011;206;48.782;9.252;2022-09-20T14:57:55;1.83;;;1.07;;
438;SDS011;206;48.782;9.252;2022-09-20T15:00:23;9.50;;;1.70;;
438;SDS011;206;48.782;9.252;2022-09-20T15:02:49;4.47;;;1.40;;
438;SDS011;206;48.782;9.252;2022-09-20T15:05:16;4.67;;;1.80;;
438;SDS011;206;48.782;9.252;2022-09-20T15:07:51;1.50;;;1.50;;
438;SDS011;206;48.782;9.252;2022-09-20T15:10:20;6.33;;;1.70;;
438;SDS011;206;48.782;9.252;2022-09-20T15:12:46;10.50;;;7.03;;
438;SDS011;206;48.782;9.252;2022-09-20T15:15:12;6.67;;;1.60;;
438;SDS011;206;48.782;9.252;2022-09-20T15:17:40;3.37;;;1.47;;
438;SDS011;206;48.782;9.252;2022-09-20T15:20:14;2.17;;;1.43;;
438;SDS011;206;48.782;9.252;2022-09-20T15:22:45;4.13;;;1.77;;
438;SDS011;206;48.782;9.252;2022-09-20T15:25:15;9.53;;;1.90;;
438;SDS011;206;48.782;9.252;2022-09-20T15:27:43;1.80;;;1.63;;
438;SDS011;206;48.782;9.252;2022-09-20T15:30:11;3.23;;;1.63;;
438;SDS011;206;48.782;9.252;2022-09-20T15:32:40;2.97;;;1.60;;
438;SDS011;206;48.782;9.252;2022-09-20T15:35:07;5.80;;;1.97;;
438;SDS011;206;48.782;9.252;2022-09-20T15:37:33;5.00;;;1.60;;
438;SDS011;206;48.782;9.252;2022-09-20T15:39:59;3.07;;;1.80;;
438;SDS011;206;48.782;9.252;2022-09-20T15:42:25;3.17;;;1.60;;
438;SDS011;206;48.782;9.252;2022-09-20T15:44:51;2.57;;;1.37;;
438;SDS011;206;48.782;9.252;2022-09-20T15:47:16;1.80;;;1.10;;
438;SDS011;206;48.782;9.252;2022-09-20T15:49:42;7.10;;;1.93;;
438;SDS011;206;48.782;9.252;2022-09-20T15:52:10;4.30;;;1.40;;
438;SDS011;206;48.782;9.252;2022-09-20T15:54:39;1.93;;;1.57;;
438;SDS011;206;48.782;9.252;2022-09-20T15:57:04;2.80;;;1.30;;
438;SDS011;206;48.782;9.252;2022-09-20T15:59:30;1.90;;;1.40;;
438;SDS011;206;48.782;9.252;2022-09-20T16:01:58;4.37;;;1.50;;
438;SDS011;206;48.782;9.252;2022-09-20T16:04:24;16.83;;;4.00;;
438;SDS011;206;48.782;9.252;2022-09-20T16:06:53;7.33;;;2.63;;
438;SDS011;206;48.782;9.252;2022-09-20T16:09:18;2.77;;;2.00;;
438;SDS011;206;48.782;9.252;2022-09-20T16:11:47;1.57;;;1.47;;
438;SDS011;206;48.782;9.252;2022-09-20T16:14:13;2.53;;;1.70;;
438;SDS011;206;48.782;9.252;2022-09-20T16:16:39;2.20;;;2.00;;
438;SDS011;206;48.782;9.252;2022-09-20T16:19:04;2.47;;;2.00;;
438;SDS011;206;48.782;9.252;2022-09-20T16:21:44;2.70;;;1.50;;
438;SDS011;206;48.782;9.252;2022-09-20T16:24:13;1.83;;;1.60;;
438;SDS011;206;48.782;9.252;2022-09-20T16:26:39;1.80;;;1.40;;
438;SDS011;206;48.782;9.252;2022-09-20T16:29:05;3.50;;;1.40;;
438;SDS011;206;48.782;9.252;2022-09-20T16:31:47;2.23;;;1.30;;
438;SDS011;206;48.782;9.252;2022-09-20T16:34:18;1.23;;;1.17;;
438;SDS011;206;48.782;9.252;2022-09-20T16:36:55;2.00;;;1.30;;
438;SDS011;206;48.782;9.252;2022-09-20T16:39:25;2.70;;;1.50;;
438;SDS011;206;48.782;9.252;2022-09-20T16:41:53;3.70;;;1.50;;
438;SDS011;206;48.782;9.252;2022-09-20T16:44:21;7.17;;;2.20;;
438;SDS011;206;48.782;9.252;2022-09-20T16:46:47;8.43;;;1.90;;
438;SDS011;206;48.782;9.252;2022-09-20T16:49:13;2.60;;;1.83;;
438;SDS011;206;48.782;9.252;2022-09-20T16:51:40;3.17;;;1.60;;
438;SDS011;206;48.782;9.252;2022-09-20T16:54:11;4.10;;;1.50;;
438;SDS011;206;48.782;9.252;2022-09-20T16:56:39;2.30;;;1.90;;
438;SDS011;206;48.782;9.252;2022-09-20T16:59:09;2.53;;;1.30;;
438;SDS011;206;48.782;9.252;2022-09-20T17:01:36;2.37;;;1.77;;
438;SDS011;206;48.782;9.252;2022-09-20T17:04:04;2.63;;;1.90;;
438;SDS011;206;48.782;9.252;2022-09-20T17:06:30;2.70;;;2.10;;
438;SDS011;206;48.782;9.252;2022-09-20T17:08:58;4.93;;;2.13;;
438;SDS011;206;48.782;9.252;2022-09-20T17:11:26;3.90;;;2.00;;
438;SDS011;206;48.782;9.252;2022-09-20T17:13:53;3.17;;;2.37;;
438;SDS011;206;48.782;9.252;2022-09-20T17:16:21;2.50;;;2.10;;
438;SDS011;206;48.782;9.252;2022-09-20T17:18:52;2.17;;;1.90;;
438;SDS011;206;48.782;9.252;2022-09-20T17:21:18;4.07;;;1.73;;
438;SDS011;206;48.782;9.252;2022-09-20T17:23:46;2.83;;;1.57;;
438;SDS011;206;48.782;9.252;2022-09-20T17:28:43;2.07;;;1.93;;
438;SDS011;206;48.782;9.252;2022-09-20T17:31:10;2.77;;;2.10;;
438;SDS011;206;48.782;9.252;2022-09-20T17:33:38;3.63;;;2.50;;
438;SDS011;206;48.782;9.252;2022-09-20T17:36:04;4.30;;;2.00;;
438;SDS011;206;48.782;9.252;2022-09-20T17:38:31;5.20;;;2.97;;
438;SDS011;206;48.782;9.252;2022-09-20T17:41:04;2.43;;;2.23;;
438;SDS011;206;48.782;9.252;2022-09-20T17:43:32;8.47;;;3.20;;
438;SDS011;206;48.782;9.252;2022-09-20T17:46:12;4.10;;;2.70;;
438;SDS011;206;48.782;9.252;2022-09-20T17:48:46;5.17;;;3.83;;
438;SDS011;206;48.782;9.252;2022-09-20T17:51:16;12.20;;;8.67;;
438;SDS011;206;48.782;9.252;2022-09-20T17:53:42;14.10;;;7.93;;
438;SDS011;206;48.782;9.252;2022-09-20T17:56:08;9.47;;;6.57;;
438;SDS011;206;48.782;9.252;2022-09-20T17:58:35;7.00;;;5.20;;
438;SDS011;206;48.782;9.252;2022-09-20T18:01:05;6.00;;;4.63;;
438;SDS011;206;48.782;9.252;2022-09-20T18:03:38;8.53;;;4.40;;
438;SDS011;206;48.782;9.252;2022-09-20T18:06:18;3.10;;;2.57;;
438;SDS011;206;48.782;9.252;2022-09-20T18:08:45;5.03;;;2.60;;
438;SDS011;206;48.782;9.252;2022-09-20T18:11:15;3.57;;;2.50;;
438;SDS011;206;48.782;9.252;2022-09-20T18:13:43;5.70;;;3.00;;
438;SDS011;206;48.782;9.252;2022-09-20T18:16:09;3.10;;;2.57;;
438;SDS011;206;48.782;9.252;2022-09-20T18:18:36;3.53;;;3.17;;
438;SDS011;206;48.782;9.252;2022-09-20T18:21:10;8.47;;;3.53;;
438;SDS011;206;48.782;9.252;2022-09-20T18:23:37;4.27;;;3.47;;
438;SDS011;206;48.782;9.252;2022-09-20T18:26:10;7.30;;;5.83;;
438;SDS011;206;48.782;9.252;2022-09-20T18:28:45;6.37;;;4.13;;
438;SDS011;206;48.782;9.252;2022-09-20T18:31:18;4.90;;;3.40;;
438;SDS011;206;48.782;9.252;2022-09-20T18:33:45;3.43;;;3.00;;
438;SDS011;206;48.782;9.252;2022-09-20T18:36:11;3.07;;;2.90;;
438;SDS011;206;48.782;9.252;2022-09-20T18:38:37;5.00;;;3.73;;
438;SDS011;206;48.782;9.252;2022-09-20T18:41:03;5.00;;;2.90;;
438;SDS011;206;48.782;9.252;2022-09-20T18:43:29;6.73;;;3.93;;
438;SDS011;206;48.782;9.252;2022-09-20T18:45:55;5.00;;;3.30;;
438;SDS011;206;48.782;9.252;2022-09-20T18:48:22;5.17;;;3.53;;
438;SDS011;206;48.782;9.252;2022-09-20T18:50:55;8.00;;;4.60;;
438;SDS011;206;48.782;9.252;2022-09-20T18:53:29;6.30;;;3.30;;
438;SDS011;206;48.782;9.252;2022-09-20T18:58:44;5.83;;;3.37;;
438;SDS011;206;48.782;9.252;2022-09-20T19:06:32;5.17;;;4.40;;
438;SDS011;206;48.782;9.252;2022-09-20T19:09:27;6.07;;;4.50;;
438;SDS011;206;48.782;9.252;2022-09-20T19:12:14;4.93;;;3.47;;
438;SDS011;206;48.782;9.252;2022-09-20T19:15:02;10.73;;;4.13;;
438;SDS011;206;48.782;9.252;2022-09-20T19:20:25;4.20;;;3.73;;
438;SDS011;206;48.782;9.252;2022-09-20T19:23:08;6.40;;;4.13;;
438;SDS011;206;48.782;9.252;2022-09-20T19:25:44;14.13;;;5.53;;
438;SDS011;206;48.782;9.252;2022-09-20T19:28:12;4.93;;;4.00;;
438;SDS011;206;48.782;9.252;2022-09-20T19:30:38;6.20;;;3.83;;
438;SDS011;206;48.782;9.252;2022-09-20T19:33:13;6.83;;;3.93;;
438;SDS011;206;48.782;9.252;2022-09-20T19:35:41;6.83;;;4.10;;
438;SDS011;206;48.782;9.252;2022-09-20T19:38:13;6.03;;;3.50;;
438;SDS011;206;48.782;9.252;2022-09-20T19:52:20;6.50;;;4.63;;
438;SDS011;206;48.782;9.252;2022-09-20T19:54:47;5.53;;;2.90;;
438;SDS011;206;48.782;9.252;2022-09-20T19:57:21;5.30;;;3.67;;
438;SDS011;206;48.782;9.252;2022-09-20T19:59:51;4.37;;;3.60;;
438;SDS011;206;48.782;9.252;2022-09-20T20:02:17;4.53;;;4.20;;
438;SDS011;206;48.782;9.252;2022-09-20T20:04:43;6.03;;;4.50;;
438;SDS011;206;48.782;9.252;2022-09-20T20:07:12;5.60;;;3.73;;
438;SDS011;206;48.782;9.252;2022-09-20T20:10:27;3.90;;;3.80;;
438;SDS011;206;48.782;9.252;2022-09-20T20:13:03;7.07;;;4.20;;
438;SDS011;206;48.782;9.252;2022-09-20T20:16:02;4.67;;;3.97;;
438;SDS011;206;48.782;9.252;2022-09-20T20:21:51;5.77;;;4.83;;
438;SDS011;206;48.782;9.252;2022-09-20T20:24:42;8.30;;;4.70;;
438;SDS011;206;48.782;9.252;2022-09-20T20:27:14;8.43;;;4.23;;
438;SDS011;206;48.782;9.252;2022-09-20T20:29:39;7.60;;;5.37;;
438;SDS011;206;48.782;9.252;2022-09-20T20:32:05;7.40;;;3.90;;
438;SDS011;206;48.782;9.252;2022-09-20T20:34:30;9.23;;;4.50;;
438;SDS011;206;48.782;9.252;2022-09-20T20:36:56;10.40;;;3.20;;
438;SDS011;206;48.782;9.252;2022-09-20T20:39:28;7.20;;;4.93;;
438;SDS011;206;48.782;9.252;2022-09-20T20:41:55;5.27;;;4.33;;
438;SDS011;206;48.782;9.252;2022-09-20T20:44:23;3.70;;;3.10;;
438;SDS011;206;48.782;9.252;2022-09-20T20:46:48;4.00;;;3.80;;
438;SDS011;206;48.782;9.252;2022-09-20T20:49:14;3.77;;;3.33;;
438;SDS011;206;48.782;9.252;2022-09-20T20:51:41;4.33;;;3.40;;
438;SDS011;206;48.782;9.252;2022-09-20T20:54:07;4.10;;;3.70;;
438;SDS011;206;48.782;9.252;2022-09-20T20:56:34;5.10;;;4.50;;
438;SDS011;206;48.782;9.252;2022-09-20T20:59:01;5.47;;;3.40;;
438;SDS011;206;48.782;9.252;2022-09-20T21:01:29;6.27;;;3.43;;
438;SDS011;206;48.782;9.252;2022-09-20T21:03:56;12.07;;;4.00;;
438;SDS011;206;48.782;9.252;2022-09-20T21:06:23;8.27;;;4.00;;
438;SDS011;206;48.782;9.252;2022-09-20T21:08:54;7.03;;;4.50;;
438;SDS011;206;48.782;9.252;2022-09-20T21:11:23;6.37;;;3.90;;
438;SDS011;206;48.782;9.252;2022-09-20T21:13:51;6.33;;;4.20;;
438;SDS011;206;48.782;9.252;2022-09-20T21:16:19;6.30;;;4.60;;
438;SDS011;206;48.782;9.252;2022-09-20T21:18:47;8.70;;;4.60;;
438;SDS011;206;48.782;9.252;2022-09-20T21:21:15;6.00;;;5.00;;
438;SDS011;206;48.782;9.252;2022-09-20T21:23:47;10.10;;;6.27;;
438;SDS011;206;48.782;9.252;2022-09-20T21:26:17;6.87;;;5.13;;
438;SDS011;206;48.782;9.252;2022-09-20T21:28:44;4.87;;;4.20;;
438;SDS011;206;48.782;9.252;2022-09-20T21:31:18;8.00;;;6.20;;
438;SDS011;206;48.782;9.252;2022-09-20T21:33:45;7.83;;;5.20;;
438;SDS011;206;48.782;9.252;2022-09-20T21:36:12;12.37;;;6.13;;
438;SDS011;206;48.782;9.252;2022-09-20T21:38:40;5.97;;;4.60;;
438;SDS011;206;48.782;9.252;2022-09-20T21:43:32;7.23;;;5.17;;
438;SDS011;206;48.782;9.252;2022-09-20T21:45:58;20.00;;;5.73;;
438;SDS011;206;48.782;9.252;2022-09-20T21:48:24;11.07;;;5.57;;
438;SDS011;206;48.782;9.252;2022-09-20T21:50:50;6.10;;;4.57;;
438;SDS011;206;48.782;9.252;2022-09-20T21:53:16;10.43;;;5.50;;
438;SDS011;206;48.782;9.252;2022-09-20T21:55:43;8.60;;;6.13;;
438;SDS011;206;48.782;9.252;2022-09-20T21:58:08;12.93;;;7.10;;
438;SDS011;206;48.782;9.252;2022-09-20T22:00:34;7.80;;;6.10;;
438;SDS011;206;48.782;9.252;2022-09-20T22:03:00;12.10;;;7.17;;
438;SDS011;206;48.782;9.252;2022-09-20T22:05:26;8.17;;;6.53;;